EmailTwitter


Observations de surface / États-Unis / KJFK (74486)

Régions: Québec | Canada | États-Unis | Europe | France | UK | Ailleurs
Station
Affichage
Infos & localisation pour KJFK (74486) | Aide pour décoder les METARs

Observations prises le 2017-12-12 à 13H51 UTC à NEW YORK/JF KENN, NY (KJFK)

Etat du ciel: couvert.

Température: 9.0 Celsius

Point de rosée: 5.0 Celsius

Humidité relative: 76%

Facteur vent: 6.

Vents: Sud à 24 km/h ou 13 noeuds.

Pression au niveau moyen de la mer: 100.35 kilopascals.

Calage altimétrique: 100.37 kilopascals ou 29.64 pouces de mercure.

Visibilité horizontale: 10.00 milles terrestres ou 16.00 kilomètres.

Hauteur du plafond: 2743 mètres ( 9000 pieds ).

Observation METAR:

KJFK 121351Z 18013KT 10SM FEW023 SCT045 OVC090 09/05 A2964 RMK AO2 RAE1256

SLP035 P0000 T00940050=